Time;durP1;ratioP1;P1;durP2;ratioP2;P2;SDS_P1;SDS_P2;PMS_P1;PMS_P2;Temp;Humidity;BMP_temperature;BMP_pressure;BME280_temperature;BME280_humidity;BME280_pressure;Samples;Min_cycle;Max_cycle;Signal;HPM_P1;HPM_P2
2022/10/19 00:01:36;;;;;;;10.50;1.77;;;11.50;99.90;;;;;;4966600;28;20049;-62
2022/10/19 00:04:03;;;;;;;7.03;1.30;;;11.40;99.90;;;;;;4965370;28;20046;-63
2022/10/19 00:06:31;;;;;;;6.43;1.70;;;11.50;99.90;;;;;;4959306;28;20038;-62
2022/10/19 00:09:05;;;;;;;8.07;1.45;;;11.30;99.90;;;;;;4947323;29;20051;-62
2022/10/19 00:11:33;;;;;;;6.57;1.67;;;11.50;99.90;;;;;;4945681;28;20047;-62
2022/10/19 00:13:59;;;;;;;8.55;1.52;;;11.30;99.90;;;;;;4947316;29;20047;-62
2022/10/19 00:16:28;;;;;;;7.38;1.35;;;11.40;99.90;;;;;;4946045;29;20051;-62
2022/10/19 00:18:56;;;;;;;5.82;1.40;;;11.40;99.90;;;;;;4946269;29;20044;-62
2022/10/19 00:21:22;;;;;;;9.35;1.75;;;11.40;99.90;;;;;;4946918;29;20043;-62
2022/10/19 00:23:48;;;;;;;6.35;1.40;;;11.50;99.90;;;;;;4946707;29;20059;-62
2022/10/19 00:26:14;;;;;;;7.22;1.45;;;11.40;99.90;;;;;;4946601;29;20127;-62
2022/10/19 00:28:41;;;;;;;8.88;1.48;;;11.30;99.90;;;;;;4946063;29;20105;-62
2022/10/19 00:31:12;;;;;;;8.18;1.67;;;11.50;99.90;;;;;;4944491;29;20062;-63
2022/10/19 00:33:38;;;;;;;10.73;3.60;;;11.50;99.90;;;;;;4946649;29;20113;-62
2022/10/19 00:36:05;;;;;;;10.50;4.13;;;11.50;99.90;;;;;;4945867;29;20051;-62
2022/10/19 00:38:31;;;;;;;10.98;2.88;;;11.50;99.90;;;;;;4946896;29;20454;-62
2022/10/19 00:40:57;;;;;;;7.03;2.03;;;11.60;99.90;;;;;;4946961;28;20101;-62
2022/10/19 00:43:26;;;;;;;6.47;1.60;;;11.50;99.90;;;;;;4945881;29;20803;-62
2022/10/19 00:45:52;;;;;;;7.95;1.80;;;11.50;99.90;;;;;;4945095;29;20047;-62
2022/10/19 00:48:29;;;;;;;7.10;1.67;;;11.60;99.90;;;;;;4945451;29;20073;-62
2022/10/19 00:50:56;;;;;;;6.05;1.33;;;11.60;99.90;;;;;;4945201;29;20045;-62
2022/10/19 00:53:25;;;;;;;6.00;1.10;;;11.60;99.90;;;;;;4945592;29;20051;-62
2022/10/19 00:55:50;;;;;;;5.13;1.13;;;11.50;99.90;;;;;;4945966;29;20071;-62
2022/10/19 00:58:16;;;;;;;4.25;1.23;;;11.60;99.90;;;;;;4945695;29;20103;-62
2022/10/19 01:00:42;;;;;;;7.13;1.10;;;11.70;99.90;;;;;;4944097;28;20619;-62
2022/10/19 01:03:10;;;;;;;9.02;1.05;;;11.60;99.90;;;;;;4945848;28;20038;-62
2022/10/19 01:05:37;;;;;;;7.13;1.45;;;11.70;99.90;;;;;;4950891;28;20225;-62
2022/10/19 01:08:03;;;;;;;8.27;1.48;;;11.70;99.90;;;;;;4950683;28;20044;-63
2022/10/19 01:10:44;;;;;;;8.88;1.40;;;11.70;99.90;;;;;;4945546;29;20491;-62
2022/10/19 01:13:27;;;;;;;4.95;1.10;;;11.70;99.90;;;;;;4944336;28;20930;-62
2022/10/19 01:16:21;;;;;;;5.15;1.10;;;11.70;99.90;;;;;;4945199;29;20086;-62
2022/10/19 01:19:27;;;;;;;7.75;1.40;;;11.90;99.90;;;;;;4945098;29;20067;-62
2022/10/19 01:22:14;;;;;;;7.35;1.55;;;11.70;99.90;;;;;;4944664;28;20055;-62
2022/10/19 01:25:16;;;;;;;6.18;1.30;;;11.80;99.90;;;;;;4945548;29;20047;-62
2022/10/19 01:28:00;;;;;;;8.10;1.25;;;12.00;99.90;;;;;;4946150;29;20607;-62
2022/10/19 01:30:46;;;;;;;8.82;1.85;;;11.90;99.90;;;;;;4944361;29;20537;-62
2022/10/19 01:33:33;;;;;;;6.47;1.25;;;12.10;99.90;;;;;;4945268;29;20043;-62
2022/10/19 01:36:29;;;;;;;7.32;1.00;;;12.10;99.90;;;;;;4945518;29;20086;-62
2022/10/19 01:39:04;;;;;;;7.95;1.35;;;12.10;99.90;;;;;;4945930;29;20079;-62
2022/10/19 01:41:43;;;;;;;6.10;1.05;;;12.10;99.90;;;;;;4945795;29;20043;-63
2022/10/19 01:44:17;;;;;;;10.25;1.30;;;12.00;99.90;;;;;;4962318;28;20557;-62
2022/10/19 01:46:45;;;;;;;;;;;12.00;99.90;;;;;;4964060;28;20042;-62
2022/10/19 01:49:18;;;;;;;5.80;1.50;;;12.00;99.90;;;;;;4964527;28;19932;-62
2022/10/19 01:51:48;;;;;;;6.15;1.02;;;11.90;99.90;;;;;;4964931;28;20047;-62
2022/10/19 01:54:17;;;;;;;10.90;1.40;;;12.00;99.90;;;;;;4964803;28;20082;-63
2022/10/19 01:56:46;;;;;;;5.43;0.90;;;12.00;99.90;;;;;;4965083;28;20058;-62
2022/10/19 01:59:12;;;;;;;8.57;1.20;;;12.00;99.90;;;;;;4964430;28;20446;-62
2022/10/19 02:01:42;;;;;;;7.22;1.17;;;12.00;99.90;;;;;;4963482;28;20614;-62
2022/10/19 02:04:10;;;;;;;5.47;1.17;;;11.90;99.90;;;;;;4964257;28;20047;-62
2022/10/19 02:06:36;;;;;;;6.88;1.27;;;11.90;99.90;;;;;;4956846;28;20064;-63
2022/10/19 02:09:02;;;;;;;5.13;0.90;;;11.90;99.90;;;;;;4944528;29;20443;-63
2022/10/19 02:11:30;;;;;;;7.10;1.20;;;11.70;99.90;;;;;;4945594;29;20458;-62
2022/10/19 02:14:00;;;;;;;7.28;1.33;;;11.80;99.90;;;;;;4945168;29;20042;-62
2022/10/19 02:16:31;;;;;;;6.05;1.23;;;11.70;99.90;;;;;;4943055;29;20102;-62
2022/10/19 02:18:58;;;;;;;10.23;1.27;;;11.80;99.90;;;;;;4945436;29;20584;-62
2022/10/19 02:21:26;;;;;;;10.13;1.27;;;11.80;99.90;;;;;;4948602;28;20090;-62
2022/10/19 02:23:51;;;;;;;7.93;1.20;;;11.90;99.90;;;;;;4982979;28;20054;-62
2022/10/19 02:26:17;;;;;;;7.30;1.33;;;11.80;99.90;;;;;;4983080;28;20473;-62
2022/10/19 02:28:43;;;;;;;7.15;1.35;;;11.70;99.90;;;;;;4983228;28;20054;-62
2022/10/19 02:31:09;;;;;;;7.93;1.40;;;11.70;99.90;;;;;;4982868;28;20042;-62
2022/10/19 02:33:35;;;;;;;7.13;1.17;;;11.80;99.90;;;;;;4984731;28;20045;-62
2022/10/19 02:36:02;;;;;;;8.52;1.65;;;11.60;99.90;;;;;;4990271;28;20073;-62
2022/10/19 02:38:28;;;;;;;10.05;1.40;;;11.80;99.90;;;;;;4989798;28;20650;-62
2022/10/19 02:41:11;;;;;;;9.35;1.40;;;11.70;99.90;;;;;;4990236;28;20122;-62
2022/10/19 02:43:39;;;;;;;7.07;1.30;;;11.60;99.90;;;;;;4971657;28;20061;-62
2022/10/19 02:46:16;;;;;;;6.40;1.33;;;11.60;99.90;;;;;;4988720;28;20057;-62
2022/10/19 02:48:43;;;;;;;9.85;1.33;;;11.70;99.90;;;;;;4989614;28;20092;-62
2022/10/19 02:51:36;;;;;;;7.15;1.45;;;11.60;99.90;;;;;;4989069;28;20287;-62
2022/10/19 02:54:04;;;;;;;8.57;1.45;;;11.60;99.90;;;;;;4989632;28;20142;-63
2022/10/19 02:56:29;;;;;;;7.90;1.60;;;11.60;99.90;;;;;;4989910;28;20042;-62
2022/10/19 02:58:55;;;;;;;6.03;1.10;;;11.70;99.90;;;;;;4989401;28;20579;-62
2022/10/19 03:01:21;;;;;;;5.93;1.10;;;11.50;99.90;;;;;;4988375;28;20440;-62
2022/10/19 03:03:46;;;;;;;13.07;1.83;;;11.70;99.90;;;;;;4989503;28;20069;-62
2022/10/19 03:06:12;;;;;;;6.65;1.30;;;11.60;99.90;;;;;;4972635;28;20046;-62
2022/10/19 03:08:38;;;;;;;7.50;1.90;;;11.60;99.90;;;;;;4970281;28;20188;-62
2022/10/19 03:11:06;;;;;;;8.52;1.52;;;11.70;99.90;;;;;;4969397;28;20494;-62
2022/10/19 03:13:32;;;;;;;8.32;1.63;;;11.80;99.90;;;;;;4952713;28;20050;-62
2022/10/19 03:16:04;;;;;;;8.93;1.38;;;11.70;99.90;;;;;;4969327;28;20108;-62
2022/10/19 03:18:29;;;;;;;9.38;1.40;;;11.80;99.90;;;;;;4969288;28;20106;-62
2022/10/19 03:21:10;;;;;;;8.70;1.50;;;11.70;99.90;;;;;;4970301;28;20039;-61
2022/10/19 03:23:37;;;;;;;12.10;1.42;;;11.90;99.90;;;;;;4969832;28;20058;-62
2022/10/19 03:26:04;;;;;;;7.00;1.30;;;11.80;99.90;;;;;;4951815;28;20042;-63
2022/10/19 03:28:29;;;;;;;8.13;1.55;;;11.80;99.90;;;;;;4952585;28;20182;-62
2022/10/19 03:30:55;;;;;;;6.88;1.15;;;11.60;99.90;;;;;;4969491;28;20134;-62
2022/10/19 03:33:21;;;;;;;8.43;1.48;;;11.70;99.90;;;;;;4968964;28;20150;-62
2022/10/19 03:35:47;;;;;;;13.57;1.70;;;11.60;99.90;;;;;;4970043;28;20557;-62
2022/10/19 03:38:13;;;;;;;9.82;1.67;;;11.60;99.90;;;;;;4969984;28;20097;-62
2022/10/19 03:40:39;;;;;;;9.82;2.13;;;11.70;99.90;;;;;;4970313;28;20061;-62
2022/10/19 03:43:04;;;;;;;7.90;1.95;;;11.50;99.90;;;;;;4951422;28;20526;-62
2022/10/19 03:45:30;;;;;;;12.48;2.42;;;11.50;99.90;;;;;;4966882;28;20133;-62
2022/10/19 03:47:56;;;;;;;9.70;2.00;;;11.50;99.90;;;;;;4966922;28;20525;-62
2022/10/19 03:50:22;;;;;;;13.65;2.25;;;11.50;99.90;;;;;;4948549;28;20059;-63
2022/10/19 03:52:48;;;;;;;13.80;2.20;;;11.50;99.90;;;;;;4967054;28;20608;-62
2022/10/19 03:55:14;;;;;;;8.40;1.85;;;11.70;99.90;;;;;;4967100;28;20527;-62
2022/10/19 03:57:40;;;;;;;11.88;1.92;;;11.60;99.90;;;;;;4948862;28;20072;-62
2022/10/19 04:00:07;;;;;;;8.15;1.92;;;11.60;99.90;;;;;;4965063;28;20227;-62
2022/10/19 04:02:33;;;;;;;10.20;1.45;;;11.60;99.90;;;;;;4966799;28;20046;-62
2022/10/19 04:04:59;;;;;;;9.10;2.47;;;11.60;99.90;;;;;;4966226;28;20043;-62
2022/10/19 04:07:24;;;;;;;8.85;1.85;;;11.70;99.90;;;;;;4966046;28;20255;-61
2022/10/19 04:09:50;;;;;;;8.07;2.10;;;11.70;99.90;;;;;;4964576;28;20035;-62
2022/10/19 04:12:16;;;;;;;11.52;2.08;;;11.70;99.90;;;;;;4966360;28;20126;-64
2022/10/19 04:14:41;;;;;;;11.45;2.20;;;11.70;99.90;;;;;;4965958;28;20050;-61
2022/10/19 04:17:07;;;;;;;14.27;2.83;;;11.70;99.90;;;;;;4963913;28;20105;-62
2022/10/19 04:19:33;;;;;;;14.05;2.35;;;11.80;99.90;;;;;;4948933;28;20054;-62
2022/10/19 04:21:59;;;;;;;8.02;1.70;;;11.80;99.90;;;;;;4966586;28;20536;-62
2022/10/19 04:24:24;;;;;;;12.45;1.77;;;11.80;99.90;;;;;;4965858;28;20047;-63
2022/10/19 04:26:52;;;;;;;9.15;1.95;;;11.80;99.90;;;;;;4965562;28;20469;-62
2022/10/19 04:29:20;;;;;;;11.30;1.83;;;11.90;99.90;;;;;;4965653;28;20049;-63
2022/10/19 04:31:48;;;;;;;9.88;1.90;;;11.90;99.90;;;;;;4965014;28;20438;-62
2022/10/19 04:34:14;;;;;;;10.15;1.88;;;11.80;99.90;;;;;;4947168;28;20051;-62
2022/10/19 04:36:40;;;;;;;11.13;2.13;;;11.90;99.90;;;;;;4965973;28;20437;-65
2022/10/19 04:39:06;;;;;;;13.65;2.63;;;11.90;99.90;;;;;;4965914;28;20047;-63
2022/10/19 04:41:32;;;;;;;8.50;1.73;;;11.80;99.90;;;;;;4965392;28;20045;-62
2022/10/19 04:44:00;;;;;;;10.48;1.67;;;11.80;99.90;;;;;;4965729;28;20134;-62
2022/10/19 04:46:28;;;;;;;12.07;1.90;;;11.90;99.90;;;;;;4964432;28;20138;-62
2022/10/19 04:48:55;;;;;;;12.48;1.88;;;11.80;99.90;;;;;;4965837;28;20058;-62
2022/10/19 04:51:22;;;;;;;8.88;1.73;;;11.70;99.90;;;;;;4964496;28;20125;-62
2022/10/19 04:53:48;;;;;;;11.02;1.70;;;11.70;99.90;;;;;;4965485;28;20054;-62
2022/10/19 04:56:19;;;;;;;10.52;1.90;;;11.70;99.90;;;;;;4964991;28;20133;-62
2022/10/19 04:58:46;;;;;;;11.02;1.98;;;11.70;99.90;;;;;;4964842;28;20074;-62
2022/10/19 05:01:18;;;;;;;14.23;2.40;;;11.70;99.90;;;;;;4964732;28;20548;-62
2022/10/19 05:03:44;;;;;;;10.85;1.75;;;11.70;99.90;;;;;;4965706;28;20050;-62
2022/10/19 05:06:10;;;;;;;10.85;1.92;;;11.80;99.90;;;;;;4964809;28;20410;-62
2022/10/19 05:08:37;;;;;;;13.07;2.10;;;11.80;99.90;;;;;;4947196;28;20402;-62
2022/10/19 05:11:11;;;;;;;9.90;1.45;;;11.70;99.90;;;;;;4965484;28;20047;-63
2022/10/19 05:13:37;;;;;;;;;;;11.80;99.90;;;;;;4965635;28;20043;-62
2022/10/19 05:16:05;;;;;;;10.73;2.13;;;11.70;99.90;;;;;;4963182;28;20400;-62
2022/10/19 05:18:32;;;;;;;10.63;1.75;;;11.80;99.90;;;;;;4965537;28;20794;-62
2022/10/19 05:21:11;;;;;;;9.82;1.67;;;11.70;99.90;;;;;;4947898;28;20042;-62
2022/10/19 05:23:39;;;;;;;11.73;1.98;;;11.70;99.90;;;;;;4965018;28;20577;-63
2022/10/19 05:26:06;;;;;;;9.02;1.73;;;11.60;99.90;;;;;;4965155;28;20123;-62
2022/10/19 05:28:33;;;;;;;10.35;1.90;;;11.70;99.90;;;;;;4965386;28;20043;-62
2022/10/19 05:31:09;;;;;;;13.00;2.60;;;11.70;99.90;;;;;;4964089;28;20426;-62
2022/10/19 05:33:36;;;;;;;13.38;1.83;;;11.70;99.90;;;;;;4947474;28;20055;-62
2022/10/19 05:36:24;;;;;;;11.02;2.25;;;11.70;99.90;;;;;;4964757;28;20045;-62
2022/10/19 05:38:51;;;;;;;9.48;2.10;;;11.70;99.90;;;;;;4964965;28;20062;-62
2022/10/19 05:41:17;;;;;;;11.23;1.60;;;11.70;99.90;;;;;;4964475;28;20043;-62
2022/10/19 05:43:43;;;;;;;10.35;1.85;;;11.70;99.90;;;;;;4946861;28;20047;-62
2022/10/19 05:46:12;;;;;;;9.73;1.58;;;11.60;99.90;;;;;;4963898;28;20519;-63
2022/10/19 05:48:38;;;;;;;9.20;1.58;;;11.60;99.90;;;;;;4964504;28;20046;-62
2022/10/19 05:51:06;;;;;;;9.45;2.08;;;11.70;99.90;;;;;;4963984;28;20042;-63
2022/10/19 05:53:32;;;;;;;11.82;1.83;;;11.60;99.90;;;;;;4964815;28;20150;-62
2022/10/19 05:55:58;;;;;;;13.57;2.08;;;11.70;99.90;;;;;;4964781;28;20129;-62
2022/10/19 05:58:24;;;;;;;10.85;1.75;;;11.70;99.90;;;;;;4964462;28;20502;-62
2022/10/19 06:00:55;;;;;;;9.45;1.80;;;11.70;99.90;;;;;;4963143;28;20094;-62
2022/10/19 06:03:21;;;;;;;9.77;1.90;;;11.60;99.90;;;;;;4964466;28;20395;-62
2022/10/19 06:05:48;;;;;;;9.88;1.95;;;11.70;99.90;;;;;;4964084;28;20422;-62
2022/10/19 06:08:17;;;;;;;5.85;1.50;;;11.50;99.90;;;;;;4962944;28;20409;-62
2022/10/19 06:10:43;;;;;;;8.65;1.52;;;11.60;99.90;;;;;;4964913;28;20394;-62
2022/10/19 06:13:10;;;;;;;9.25;2.05;;;11.60;99.90;;;;;;4963681;28;20134;-62
2022/10/19 06:15:38;;;;;;;6.65;1.20;;;11.60;99.90;;;;;;4963599;28;20102;-62
2022/10/19 06:18:08;;;;;;;9.20;1.67;;;11.60;99.90;;;;;;4964101;28;20050;-62
2022/10/19 06:20:35;;;;;;;6.57;1.17;;;11.60;99.90;;;;;;4964310;28;20413;-62
2022/10/19 06:23:01;;;;;;;8.55;1.80;;;11.50;99.90;;;;;;4964284;28;20125;-62
2022/10/19 06:25:28;;;;;;;11.30;1.88;;;11.60;99.90;;;;;;4963168;28;20129;-62
2022/10/19 06:27:53;;;;;;;8.63;1.40;;;11.60;99.90;;;;;;4964259;28;20058;-62
2022/10/19 06:30:19;;;;;;;12.07;1.65;;;11.60;99.90;;;;;;4963477;28;20047;-61
2022/10/19 06:32:45;;;;;;;10.82;1.80;;;11.60;99.90;;;;;;4963566;28;20089;-62
2022/10/19 06:35:10;;;;;;;10.68;1.75;;;11.60;99.90;;;;;;4963528;28;20094;-62
2022/10/19 06:37:36;;;;;;;10.98;1.70;;;11.70;99.90;;;;;;4963997;28;20589;-63
2022/10/19 06:40:02;;;;;;;9.02;2.00;;;11.70;99.90;;;;;;4963025;28;20557;-62
2022/10/19 06:42:28;;;;;;;9.15;1.63;;;11.70;99.90;;;;;;4963151;28;20038;-62
2022/10/19 06:44:54;;;;;;;9.85;1.70;;;11.70;99.90;;;;;;4963557;28;20082;-62
2022/10/19 06:47:19;;;;;;;10.95;1.70;;;11.70;99.90;;;;;;4945694;28;20085;-64
2022/10/19 06:49:45;;;;;;;8.05;1.38;;;11.70;99.90;;;;;;4963894;28;20046;-62
2022/10/19 06:52:11;;;;;;;9.45;1.67;;;11.60;99.90;;;;;;4962473;28;20110;-62
2022/10/19 06:54:36;;;;;;;9.88;1.48;;;11.60;99.90;;;;;;4963002;28;20078;-62
2022/10/19 06:57:02;;;;;;;8.63;1.50;;;11.70;99.90;;;;;;4962690;28;20034;-63
2022/10/19 06:59:27;;;;;;;8.30;1.70;;;11.60;99.90;;;;;;4962366;28;20070;-62
2022/10/19 07:01:53;;;;;;;6.72;1.42;;;11.60;99.90;;;;;;4945877;28;20051;-62
2022/10/19 07:04:19;;;;;;;10.18;1.25;;;11.60;99.90;;;;;;4962875;28;20042;-64
2022/10/19 07:06:44;;;;;;;6.15;1.20;;;11.60;99.90;;;;;;4945607;28;20039;-62
2022/10/19 07:09:10;;;;;;;6.03;1.23;;;11.70;99.90;;;;;;4961434;28;20146;-61
2022/10/19 07:11:36;;;;;;;8.30;1.48;;;11.70;99.90;;;;;;4962617;28;20050;-62
2022/10/19 07:14:02;;;;;;;12.77;1.80;;;11.60;99.90;;;;;;4963211;28;20390;-62
2022/10/19 07:16:27;;;;;;;5.88;1.40;;;11.70;99.90;;;;;;4963124;28;20047;-62
2022/10/19 07:18:53;;;;;;;8.48;1.60;;;11.60;99.90;;;;;;4962358;28;20054;-61
2022/10/19 07:21:21;;;;;;;10.88;1.52;;;11.60;99.90;;;;;;4966455;28;20094;-62
2022/10/19 07:23:47;;;;;;;6.22;1.65;;;11.70;99.90;;;;;;4966613;28;20039;-62
2022/10/19 07:26:13;;;;;;;6.53;1.10;;;11.70;99.90;;;;;;4966376;28;20046;-62
2022/10/19 07:28:40;;;;;;;11.00;1.83;;;11.70;99.90;;;;;;4966741;28;20552;-62
2022/10/19 07:31:08;;;;;;;7.57;1.30;;;11.70;99.90;;;;;;4966433;28;20093;-62
2022/10/19 07:33:34;;;;;;;6.55;1.10;;;11.80;99.90;;;;;;4967077;28;20067;-62
2022/10/19 07:36:02;;;;;;;8.80;1.50;;;11.80;99.90;;;;;;4966041;28;20046;-62
2022/10/19 07:38:30;;;;;;;12.40;1.73;;;11.80;99.90;;;;;;4967059;28;20050;-62
2022/10/19 07:41:06;;;;;;;6.82;1.20;;;11.90;99.90;;;;;;4966628;28;20043;-62
2022/10/19 07:43:33;;;;;;;9.45;1.60;;;11.90;99.90;;;;;;4966412;28;20039;-62
2022/10/19 07:46:05;;;;;;;5.80;1.30;;;11.90;99.90;;;;;;4965679;28;20063;-62
2022/10/19 07:48:31;;;;;;;6.60;1.10;;;12.00;99.90;;;;;;4948618;28;20054;-62
2022/10/19 07:50:57;;;;;;;7.80;1.65;;;12.00;99.90;;;;;;4966267;28;20050;-62
2022/10/19 07:53:23;;;;;;;11.98;1.42;;;12.00;99.90;;;;;;4965648;28;20035;-62
2022/10/19 07:55:49;;;;;;;10.80;1.80;;;12.10;99.90;;;;;;4966442;28;20422;-62
2022/10/19 07:58:14;;;;;;;6.88;1.40;;;12.20;99.90;;;;;;4966040;28;20039;-62
2022/10/19 08:00:40;;;;;;;8.32;1.60;;;12.20;99.90;;;;;;4965263;28;20127;-63
2022/10/19 08:03:06;;;;;;;7.80;1.52;;;12.20;99.90;;;;;;4966069;28;20093;-62
2022/10/19 08:05:32;;;;;;;6.95;1.50;;;12.30;99.90;;;;;;4965648;28;20046;-62
2022/10/19 08:07:58;;;;;;;8.32;1.17;;;12.40;99.90;;;;;;4965967;28;20047;-62
2022/10/19 08:10:24;;;;;;;8.32;1.38;;;12.40;99.90;;;;;;4966174;28;20049;-62
2022/10/19 08:12:49;;;;;;;7.35;1.60;;;12.40;99.90;;;;;;4966499;28;20081;-62
2022/10/19 08:15:15;;;;;;;11.93;1.42;;;12.30;99.90;;;;;;4962457;28;20134;-62
2022/10/19 08:17:40;;;;;;;6.80;1.50;;;12.50;99.90;;;;;;4966697;28;20157;-62
2022/10/19 08:20:07;;;;;;;9.85;1.83;;;12.50;99.90;;;;;;4966020;28;20465;-62
2022/10/19 08:22:33;;;;;;;6.53;1.20;;;12.50;99.90;;;;;;4947727;28;20038;-62
2022/10/19 08:24:58;;;;;;;10.30;1.83;;;12.60;99.90;;;;;;4966287;28;20053;-62
2022/10/19 08:27:24;;;;;;;10.60;1.60;;;12.60;99.90;;;;;;4965987;28;20206;-62
2022/10/19 08:29:50;;;;;;;6.50;1.23;;;12.50;99.90;;;;;;4965086;28;20161;-61
2022/10/19 08:32:17;;;;;;;8.98;1.83;;;12.60;99.90;;;;;;4964758;28;20042;-63
2022/10/19 08:34:43;;;;;;;7.13;1.60;;;12.60;99.90;;;;;;4965398;28;20121;-62
2022/10/19 08:37:08;;;;;;;7.80;1.55;;;12.60;99.90;;;;;;4965824;28;20098;-62
2022/10/19 08:39:34;;;;;;;7.78;1.40;;;12.60;99.90;;;;;;4948155;28;20063;-62
2022/10/19 08:42:18;;;;;;;10.02;1.52;;;12.70;99.90;;;;;;4965713;28;20402;-62
2022/10/19 08:44:50;;;;;;;6.57;1.30;;;12.70;99.90;;;;;;4965103;28;20211;-60
2022/10/19 08:47:34;;;;;;;8.90;1.55;;;12.70;99.90;;;;;;4964771;28;20080;-62
2022/10/19 08:50:00;;;;;;;5.97;1.42;;;12.80;99.90;;;;;;4965217;28;20046;-61
2022/10/19 08:52:34;;;;;;;5.32;1.20;;;12.70;99.90;;;;;;4964979;28;20454;-62
2022/10/19 08:55:04;;;;;;;8.88;1.48;;;12.80;99.90;;;;;;4965544;28;20047;-62
2022/10/19 08:58:05;;;;;;;6.90;2.05;;;12.80;99.90;;;;;;4965895;28;20378;-66
2022/10/19 09:00:47;;;;;;;5.57;1.20;;;13.00;99.90;;;;;;4964045;28;20117;-66
2022/10/19 09:03:34;;;;;;;6.68;0.90;;;12.90;99.90;;;;;;4964596;28;20423;-66
2022/10/19 09:06:19;;;;;;;7.63;1.35;;;12.90;99.90;;;;;;4964781;28;20086;-66
2022/10/19 09:08:45;;;;;;;;;;;12.90;99.90;;;;;;4966037;28;20075;-66
2022/10/19 09:11:11;;;;;;;8.65;1.50;;;13.00;99.90;;;;;;4964134;28;20595;-65
2022/10/19 09:13:43;;;;;;;10.57;1.52;;;13.10;99.90;;;;;;4946632;28;20189;-65
2022/10/19 09:16:14;;;;;;;6.38;1.08;;;13.10;99.90;;;;;;4963216;28;20117;-66
2022/10/19 09:18:41;;;;;;;5.72;1.13;;;13.00;99.90;;;;;;4963573;28;20047;-66
2022/10/19 09:21:24;;;;;;;7.15;1.60;;;13.10;99.90;;;;;;4946386;28;20414;-66
2022/10/19 09:23:55;;;;;;;8.43;1.33;;;13.10;99.90;;;;;;4962945;28;20146;-66
2022/10/19 09:26:26;;;;;;;7.53;1.23;;;13.10;99.90;;;;;;4964463;28;20101;-65
2022/10/19 09:29:08;;;;;;;8.60;1.33;;;13.10;99.90;;;;;;4963632;28;20094;-65
2022/10/19 09:31:37;;;;;;;7.82;1.50;;;13.20;99.90;;;;;;4964754;28;20051;-66
2022/10/19 09:34:24;;;;;;;8.60;1.33;;;13.10;99.90;;;;;;4947095;28;20047;-67
2022/10/19 09:36:56;;;;;;;6.15;1.33;;;13.10;99.90;;;;;;4944861;29;20126;-65
2022/10/19 09:39:22;;;;;;;7.68;1.77;;;13.20;99.90;;;;;;4945247;29;20059;-65
2022/10/19 09:42:24;;;;;;;5.95;1.52;;;13.20;99.90;;;;;;4944223;29;20079;-66
2022/10/19 09:44:51;;;;;;;6.90;1.45;;;13.10;99.90;;;;;;4943234;29;20043;-66
2022/10/19 09:47:23;;;;;;;6.38;1.08;;;13.20;99.90;;;;;;4943285;29;20066;-66
2022/10/19 09:49:48;;;;;;;10.45;1.60;;;13.10;99.90;;;;;;4958703;28;20719;-65
2022/10/19 09:52:38;;;;;;;9.30;1.48;;;13.10;99.90;;;;;;4943524;29;20043;-66
2022/10/19 09:55:25;;;;;;;8.32;1.63;;;13.20;99.90;;;;;;4944604;29;20071;-66
2022/10/19 09:58:00;;;;;;;11.55;1.85;;;13.10;99.90;;;;;;4943833;28;20082;-66
2022/10/19 10:00:37;;;;;;;;;;;13.10;99.90;;;;;;4926575;29;20061;-65
2022/10/19 10:03:04;;;;;;;7.47;1.20;;;13.10;99.90;;;;;;4944907;28;19960;-66
2022/10/19 10:05:45;;;;;;;8.18;1.52;;;13.20;99.90;;;;;;4954474;28;20074;-66
2022/10/19 10:08:19;;;;;;;7.57;1.40;;;13.20;99.90;;;;;;4963703;28;20042;-66
2022/10/19 10:10:58;;;;;;;6.87;1.17;;;13.20;99.90;;;;;;4964020;28;20057;-66
2022/10/19 10:13:26;;;;;;;9.82;1.80;;;13.20;99.90;;;;;;4962895;28;20043;-66
2022/10/19 10:16:00;;;;;;;5.72;1.05;;;13.20;99.90;;;;;;4962882;28;20066;-66
2022/10/19 10:18:27;;;;;;;7.45;1.58;;;13.30;99.90;;;;;;4963252;28;20065;-66
2022/10/19 10:21:10;;;;;;;8.18;1.38;;;13.20;99.90;;;;;;4963979;28;20030;-66
2022/10/19 10:23:36;;;;;;;9.73;1.65;;;13.30;99.90;;;;;;4963600;28;20065;-66
2022/10/19 10:26:04;;;;;;;6.22;1.27;;;13.30;99.90;;;;;;4962065;28;20034;-66
2022/10/19 10:28:30;;;;;;;7.45;1.40;;;13.40;99.90;;;;;;4963054;28;20049;-66
2022/10/19 10:31:05;;;;;;;7.65;1.60;;;13.30;99.90;;;;;;4963427;28;20065;-66
2022/10/19 10:33:35;;;;;;;5.25;1.13;;;13.30;99.90;;;;;;4963846;28;20509;-66
2022/10/19 10:36:05;;;;;;;7.38;1.20;;;13.40;99.90;;;;;;4963565;28;20053;-66
2022/10/19 10:38:35;;;;;;;8.60;1.50;;;13.50;99.90;;;;;;4963252;28;20078;-66
2022/10/19 10:41:13;;;;;;;5.97;1.55;;;13.50;99.90;;;;;;4963197;28;20051;-66
2022/10/19 10:44:00;;;;;;;8.77;1.33;;;13.50;99.90;;;;;;4945254;28;20047;-66
2022/10/19 10:46:33;;;;;;;6.25;1.20;;;13.30;99.90;;;;;;4962887;28;20405;-65
2022/10/19 10:49:02;;;;;;;7.82;1.60;;;13.30;99.90;;;;;;4963829;28;20053;-66
2022/10/19 10:51:37;;;;;;;8.15;1.48;;;13.40;99.90;;;;;;4962895;28;20117;-58
2022/10/19 10:54:20;;;;;;;7.55;1.40;;;13.50;99.90;;;;;;4963603;28;20051;-56
2022/10/19 10:57:11;;;;;;;8.90;1.48;;;13.60;99.90;;;;;;4966936;28;20043;-56
2022/10/19 10:59:52;;;;;;;6.90;1.17;;;13.70;99.90;;;;;;4955538;28;20150;-56
2022/10/19 11:02:42;;;;;;;7.15;1.20;;;13.60;99.90;;;;;;4966689;28;20082;-56
2022/10/19 11:05:13;;;;;;;8.13;1.83;;;13.60;99.90;;;;;;4966814;28;20069;-57
2022/10/19 11:07:47;;;;;;;5.88;1.15;;;13.60;99.90;;;;;;4967575;28;20038;-56
2022/10/19 11:10:39;;;;;;;8.35;2.55;;;13.60;99.90;;;;;;4967443;28;20046;-56
2022/10/19 11:13:25;;;;;;;7.07;1.80;;;13.50;99.90;;;;;;4967434;28;20130;-55
2022/10/19 11:16:12;;;;;;;8.35;1.33;;;13.50;99.90;;;;;;4966680;28;20548;-56
2022/10/19 11:18:46;;;;;;;6.70;1.80;;;13.50;99.90;;;;;;4967696;28;20503;-54
2022/10/19 11:21:33;;;;;;;8.57;1.80;;;13.50;99.90;;;;;;4966942;28;20049;-55
2022/10/19 11:24:43;;;;;;;7.55;1.55;;;13.50;99.90;;;;;;4967997;28;20042;-56
2022/10/19 11:27:16;;;;;;;7.32;1.65;;;13.50;99.90;;;;;;4967073;28;20055;-57
2022/10/19 11:30:16;;;;;;;8.55;1.73;;;13.50;99.90;;;;;;4966724;28;20050;-55
2022/10/19 11:33:00;;;;;;;5.55;1.80;;;13.60;99.90;;;;;;4945959;28;20058;-55
2022/10/19 11:35:43;;;;;;;5.90;1.48;;;13.80;99.90;;;;;;4966177;28;20058;-59
2022/10/19 11:38:15;;;;;;;8.45;1.30;;;13.80;99.90;;;;;;4949526;28;20102;-54
2022/10/19 11:41:25;;;;;;;9.10;1.50;;;13.90;99.90;;;;;;4966152;28;20055;-54
2022/10/19 11:44:00;;;;;;;5.15;1.23;;;13.80;99.90;;;;;;4957517;28;20474;-55
2022/10/19 11:46:39;;;;;;;7.00;1.17;;;13.80;99.90;;;;;;4963939;28;20038;-55
2022/10/19 11:49:08;;;;;;;5.72;1.45;;;13.80;99.90;;;;;;4965318;28;20058;-55
2022/10/19 11:51:45;;;;;;;5.93;1.25;;;13.80;99.90;;;;;;4966151;28;20142;-55
2022/10/19 11:54:40;;;;;;;6.53;1.48;;;13.80;99.90;;;;;;4963836;28;20035;-55
2022/10/19 11:57:16;;;;;;;7.78;1.35;;;13.90;99.90;;;;;;4948364;28;20055;-54
2022/10/19 11:59:56;;;;;;;8.63;1.35;;;14.20;99.90;;;;;;4965278;28;20884;-55
2022/10/19 12:02:47;;;;;;;8.23;1.27;;;14.20;99.90;;;;;;4965969;28;20061;-54
2022/10/19 12:05:37;;;;;;;7.00;1.20;;;13.90;99.90;;;;;;4964389;28;20073;-55
2022/10/19 12:08:33;;;;;;;6.32;1.30;;;14.20;99.90;;;;;;4958547;28;20367;-55
2022/10/19 12:11:07;;;;;;;8.10;1.55;;;14.30;99.90;;;;;;4958755;28;20164;-55
2022/10/19 12:13:48;;;;;;;7.30;1.20;;;14.30;99.90;;;;;;4964997;28;20074;-56
2022/10/19 12:16:16;;;;;;;7.03;1.73;;;14.20;99.90;;;;;;4965804;28;20055;-54
2022/10/19 12:18:49;;;;;;;6.38;1.52;;;14.20;99.90;;;;;;4948936;28;20083;-54
2022/10/19 12:21:37;;;;;;;8.18;1.45;;;14.20;99.90;;;;;;4965272;28;20604;-57
2022/10/19 12:24:10;;;;;;;5.47;1.63;;;14.10;99.90;;;;;;4965376;28;20121;-56
2022/10/19 12:26:36;;;;;;;4.85;1.25;;;14.10;99.90;;;;;;4965775;28;20085;-56
2022/10/19 12:29:05;;;;;;;8.48;1.65;;;14.00;99.90;;;;;;4965185;28;20082;-56
2022/10/19 12:31:32;;;;;;;4.97;1.30;;;13.90;99.90;;;;;;4966692;28;20046;-55
2022/10/19 12:34:06;;;;;;;4.63;1.20;;;13.80;99.90;;;;;;4967153;28;20055;-56
2022/10/19 12:36:46;;;;;;;5.72;1.52;;;13.90;99.90;;;;;;4965707;28;20085;-56
2022/10/19 12:39:20;;;;;;;7.35;1.30;;;13.70;99.90;;;;;;4965583;28;20053;-55
2022/10/19 12:42:17;;;;;;;7.57;1.27;;;13.80;99.90;;;;;;4947233;28;20062;-55
2022/10/19 12:45:11;;;;;;;10.73;1.45;;;13.90;99.90;;;;;;4965017;28;20042;-56
2022/10/19 12:47:36;;;;;;;6.72;1.73;;;13.80;99.90;;;;;;4965634;28;20545;-56
2022/10/19 12:50:03;;;;;;;7.03;1.38;;;13.90;99.90;;;;;;4947957;28;20142;-56
2022/10/19 12:52:40;;;;;;;7.45;1.60;;;14.00;99.90;;;;;;4965381;28;20045;-56
2022/10/19 12:55:14;;;;;;;7.03;1.45;;;14.10;99.90;;;;;;4964605;28;20414;-57
2022/10/19 12:57:45;;;;;;;;;;;14.20;99.90;;;;;;4964314;28;20667;-55
2022/10/19 13:00:25;;;;;;;5.13;1.95;;;14.20;99.90;;;;;;4963951;28;19980;-56
2022/10/19 13:03:13;;;;;;;5.38;1.30;;;14.40;99.90;;;;;;4965272;28;20085;-55
2022/10/19 13:05:39;;;;;;;6.63;1.30;;;14.20;99.90;;;;;;4964228;28;20475;-55
2022/10/19 13:08:06;;;;;;;4.18;1.20;;;14.20;99.90;;;;;;4964852;28;20133;-56